Terminal Aerodrome Forecast
Issued by NWS

Home | Current Version | Previous Version | Text Only | Print | Product List | Glossary On
Versions: 1 2 3 4 5 6 7 8 9 10 11 12 13 14 15 16 17
000
FTAK31 PANC 092038 AAA
TAFADU
TAF AMD
PADU 092038Z 0921/1018 02010G20KT 6SM -SHSN BR SCT008 BKN015 OVC025
     FM100400 33010KT P6SM SCT025 BKN050
      AMD LTD TO CLD VIS AND WX 1004/1016=

USA.gov is the U.S. government's official web portal to all federal, state and local government web resources and services.